sensor_id;sensor_type;location;lat;lon;timestamp;P1;durP1;ratioP1;P2;durP2;ratioP2
52940;SDS011;62001;53.366;6.636;2023-07-31T00:00:29;6.28;;;4.65;;
52940;SDS011;62001;53.366;6.636;2023-07-31T00:02:55;8.27;;;4.30;;
52940;SDS011;62001;53.366;6.636;2023-07-31T00:05:21;9.13;;;4.80;;
52940;SDS011;62001;53.366;6.636;2023-07-31T00:07:47;8.50;;;4.60;;
52940;SDS011;62001;53.366;6.636;2023-07-31T00:10:13;9.55;;;5.47;;
52940;SDS011;62001;53.366;6.636;2023-07-31T00:12:39;8.85;;;4.72;;
52940;SDS011;62001;53.366;6.636;2023-07-31T00:15:07;5.10;;;4.32;;
52940;SDS011;62001;53.366;6.636;2023-07-31T00:17:34;6.28;;;4.88;;
52940;SDS011;62001;53.366;6.636;2023-07-31T00:20:00;7.57;;;4.72;;
52940;SDS011;62001;53.366;6.636;2023-07-31T00:22:26;6.93;;;4.82;;
52940;SDS011;62001;53.366;6.636;2023-07-31T00:24:51;6.53;;;4.60;;
52940;SDS011;62001;53.366;6.636;2023-07-31T00:27:17;8.25;;;5.15;;
52940;SDS011;62001;53.366;6.636;2023-07-31T00:29:43;7.47;;;5.47;;
52940;SDS011;62001;53.366;6.636;2023-07-31T00:32:09;9.15;;;5.82;;
52940;SDS011;62001;53.366;6.636;2023-07-31T00:34:35;7.90;;;6.13;;
52940;SDS011;62001;53.366;6.636;2023-07-31T00:37:00;7.50;;;5.97;;
52940;SDS011;62001;53.366;6.636;2023-07-31T00:39:26;10.77;;;5.72;;
52940;SDS011;62001;53.366;6.636;2023-07-31T00:41:52;8.52;;;5.88;;
52940;SDS011;62001;53.366;6.636;2023-07-31T00:44:18;9.80;;;6.38;;
52940;SDS011;62001;53.366;6.636;2023-07-31T00:46:44;10.68;;;7.50;;
52940;SDS011;62001;53.366;6.636;2023-07-31T00:49:10;10.23;;;6.60;;
52940;SDS011;62001;53.366;6.636;2023-07-31T00:51:36;10.43;;;7.18;;
52940;SDS011;62001;53.366;6.636;2023-07-31T00:54:02;10.50;;;6.45;;
52940;SDS011;62001;53.366;6.636;2023-07-31T00:56:29;8.93;;;7.22;;
52940;SDS011;62001;53.366;6.636;2023-07-31T00:58:55;9.98;;;6.97;;
52940;SDS011;62001;53.366;6.636;2023-07-31T01:01:21;8.95;;;6.65;;
52940;SDS011;62001;53.366;6.636;2023-07-31T01:03:47;8.85;;;6.10;;
52940;SDS011;62001;53.366;6.636;2023-07-31T01:09:48;5.85;;;5.18;;
52940;SDS011;62001;53.366;6.636;2023-07-31T01:12:07;5.60;;;4.40;;
52940;SDS011;62001;53.366;6.636;2023-07-31T01:14:38;5.78;;;4.13;;
52940;SDS011;62001;53.366;6.636;2023-07-31T01:17:04;5.80;;;3.83;;
52940;SDS011;62001;53.366;6.636;2023-07-31T01:19:30;5.70;;;3.80;;
52940;SDS011;62001;53.366;6.636;2023-07-31T01:22:04;8.30;;;4.03;;
52940;SDS011;62001;53.366;6.636;2023-07-31T01:30:39;6.78;;;4.03;;
52940;SDS011;62001;53.366;6.636;2023-07-31T01:33:08;4.50;;;4.10;;
52940;SDS011;62001;53.366;6.636;2023-07-31T01:35:35;4.60;;;4.05;;
52940;SDS011;62001;53.366;6.636;2023-07-31T01:38:02;4.95;;;4.30;;
52940;SDS011;62001;53.366;6.636;2023-07-31T01:40:29;4.55;;;3.95;;
52940;SDS011;62001;53.366;6.636;2023-07-31T01:42:55;6.43;;;4.50;;
52940;SDS011;62001;53.366;6.636;2023-07-31T01:45:21;4.47;;;3.88;;
52940;SDS011;62001;53.366;6.636;2023-07-31T01:47:47;6.40;;;4.15;;
52940;SDS011;62001;53.366;6.636;2023-07-31T01:50:12;4.28;;;3.88;;
52940;SDS011;62001;53.366;6.636;2023-07-31T01:52:38;5.80;;;4.05;;
52940;SDS011;62001;53.366;6.636;2023-07-31T01:55:04;6.00;;;3.88;;
52940;SDS011;62001;53.366;6.636;2023-07-31T01:57:30;4.38;;;3.85;;
52940;SDS011;62001;53.366;6.636;2023-07-31T01:59:56;5.55;;;3.92;;
52940;SDS011;62001;53.366;6.636;2023-07-31T02:02:22;4.88;;;3.67;;
52940;SDS011;62001;53.366;6.636;2023-07-31T02:04:48;4.20;;;3.53;;
52940;SDS011;62001;53.366;6.636;2023-07-31T02:07:14;3.50;;;3.20;;
52940;SDS011;62001;53.366;6.636;2023-07-31T02:09:40;5.53;;;3.70;;
52940;SDS011;62001;53.366;6.636;2023-07-31T02:12:06;8.20;;;3.83;;
52940;SDS011;62001;53.366;6.636;2023-07-31T02:14:33;7.22;;;3.70;;
52940;SDS011;62001;53.366;6.636;2023-07-31T02:17:00;5.47;;;4.18;;
52940;SDS011;62001;53.366;6.636;2023-07-31T02:19:26;4.78;;;3.95;;
52940;SDS011;62001;53.366;6.636;2023-07-31T02:21:52;5.00;;;4.50;;
52940;SDS011;62001;53.366;6.636;2023-07-31T02:24:17;5.00;;;4.22;;
52940;SDS011;62001;53.366;6.636;2023-07-31T02:26:43;5.30;;;4.70;;
52940;SDS011;62001;53.366;6.636;2023-07-31T02:29:09;7.57;;;4.85;;
52940;SDS011;62001;53.366;6.636;2023-07-31T02:31:35;7.88;;;5.35;;
52940;SDS011;62001;53.366;6.636;2023-07-31T02:34:01;7.65;;;5.07;;
52940;SDS011;62001;53.366;6.636;2023-07-31T02:36:27;6.78;;;4.85;;
52940;SDS011;62001;53.366;6.636;2023-07-31T02:38:52;7.03;;;4.60;;
52940;SDS011;62001;53.366;6.636;2023-07-31T02:41:18;9.00;;;4.55;;
52940;SDS011;62001;53.366;6.636;2023-07-31T02:43:44;5.60;;;4.22;;
52940;SDS011;62001;53.366;6.636;2023-07-31T02:46:10;6.78;;;4.68;;
52940;SDS011;62001;53.366;6.636;2023-07-31T02:48:36;6.55;;;4.68;;
52940;SDS011;62001;53.366;6.636;2023-07-31T02:51:01;5.30;;;4.57;;
52940;SDS011;62001;53.366;6.636;2023-07-31T02:53:27;6.85;;;4.80;;
52940;SDS011;62001;53.366;6.636;2023-07-31T02:55:53;7.55;;;4.55;;
52940;SDS011;62001;53.366;6.636;2023-07-31T02:58:19;5.10;;;4.45;;
52940;SDS011;62001;53.366;6.636;2023-07-31T03:00:45;6.65;;;4.20;;
52940;SDS011;62001;53.366;6.636;2023-07-31T03:03:11;5.07;;;3.83;;
52940;SDS011;62001;53.366;6.636;2023-07-31T03:05:37;5.30;;;3.90;;
52940;SDS011;62001;53.366;6.636;2023-07-31T03:08:03;5.40;;;3.88;;
52940;SDS011;62001;53.366;6.636;2023-07-31T03:10:29;6.55;;;4.00;;
52940;SDS011;62001;53.366;6.636;2023-07-31T03:12:55;6.32;;;4.00;;
52940;SDS011;62001;53.366;6.636;2023-07-31T03:15:20;4.25;;;3.42;;
52940;SDS011;62001;53.366;6.636;2023-07-31T03:17:46;5.50;;;3.58;;
52940;SDS011;62001;53.366;6.636;2023-07-31T03:20:12;6.13;;;3.75;;
52940;SDS011;62001;53.366;6.636;2023-07-31T03:22:38;6.65;;;4.13;;
52940;SDS011;62001;53.366;6.636;2023-07-31T03:25:04;5.15;;;3.47;;
52940;SDS011;62001;53.366;6.636;2023-07-31T03:27:32;7.10;;;3.58;;
52940;SDS011;62001;53.366;6.636;2023-07-31T03:29:58;6.25;;;3.45;;
52940;SDS011;62001;53.366;6.636;2023-07-31T03:32:24;7.05;;;3.70;;
52940;SDS011;62001;53.366;6.636;2023-07-31T03:34:50;4.50;;;3.33;;
52940;SDS011;62001;53.366;6.636;2023-07-31T03:37:16;6.80;;;3.60;;
52940;SDS011;62001;53.366;6.636;2023-07-31T03:39:42;5.53;;;3.40;;
52940;SDS011;62001;53.366;6.636;2023-07-31T03:42:08;7.25;;;3.90;;
52940;SDS011;62001;53.366;6.636;2023-07-31T03:44:34;7.20;;;3.72;;
52940;SDS011;62001;53.366;6.636;2023-07-31T03:46:59;5.88;;;3.70;;
52940;SDS011;62001;53.366;6.636;2023-07-31T03:49:25;3.92;;;3.40;;
52940;SDS011;62001;53.366;6.636;2023-07-31T03:51:51;3.80;;;3.22;;
52940;SDS011;62001;53.366;6.636;2023-07-31T03:54:17;3.88;;;2.95;;
52940;SDS011;62001;53.366;6.636;2023-07-31T03:56:43;7.80;;;3.78;;
52940;SDS011;62001;53.366;6.636;2023-07-31T03:59:09;7.88;;;3.33;;
52940;SDS011;62001;53.366;6.636;2023-07-31T04:01:34;5.43;;;3.60;;
52940;SDS011;62001;53.366;6.636;2023-07-31T04:04:00;4.28;;;3.40;;
52940;SDS011;62001;53.366;6.636;2023-07-31T04:06:26;6.22;;;3.50;;
52940;SDS011;62001;53.366;6.636;2023-07-31T04:08:52;9.05;;;3.45;;
52940;SDS011;62001;53.366;6.636;2023-07-31T04:11:18;6.60;;;3.28;;
52940;SDS011;62001;53.366;6.636;2023-07-31T04:13:44;5.13;;;2.90;;
52940;SDS011;62001;53.366;6.636;2023-07-31T04:16:10;4.65;;;3.03;;
52940;SDS011;62001;53.366;6.636;2023-07-31T04:18:36;7.72;;;3.15;;
52940;SDS011;62001;53.366;6.636;2023-07-31T04:21:02;6.00;;;2.83;;
52940;SDS011;62001;53.366;6.636;2023-07-31T04:23:28;6.20;;;3.10;;
52940;SDS011;62001;53.366;6.636;2023-07-31T04:25:54;4.25;;;2.38;;
52940;SDS011;62001;53.366;6.636;2023-07-31T04:28:20;3.85;;;2.22;;
52940;SDS011;62001;53.366;6.636;2023-07-31T04:30:46;5.45;;;2.38;;
52940;SDS011;62001;53.366;6.636;2023-07-31T04:33:12;3.83;;;2.15;;
52940;SDS011;62001;53.366;6.636;2023-07-31T04:35:38;5.03;;;1.85;;
52940;SDS011;62001;53.366;6.636;2023-07-31T04:38:04;4.25;;;2.03;;
52940;SDS011;62001;53.366;6.636;2023-07-31T04:40:30;5.32;;;2.15;;
52940;SDS011;62001;53.366;6.636;2023-07-31T04:42:56;5.00;;;2.22;;
52940;SDS011;62001;53.366;6.636;2023-07-31T04:45:21;4.50;;;2.33;;
52940;SDS011;62001;53.366;6.636;2023-07-31T04:47:47;5.30;;;2.22;;
52940;SDS011;62001;53.366;6.636;2023-07-31T04:50:13;3.60;;;1.80;;
52940;SDS011;62001;53.366;6.636;2023-07-31T04:52:39;3.92;;;2.03;;
52940;SDS011;62001;53.366;6.636;2023-07-31T04:55:05;3.17;;;1.92;;
52940;SDS011;62001;53.366;6.636;2023-07-31T04:57:31;2.75;;;2.10;;
52940;SDS011;62001;53.366;6.636;2023-07-31T04:59:56;4.60;;;2.05;;
52940;SDS011;62001;53.366;6.636;2023-07-31T05:02:22;2.83;;;2.03;;
52940;SDS011;62001;53.366;6.636;2023-07-31T05:04:49;3.22;;;2.00;;
52940;SDS011;62001;53.366;6.636;2023-07-31T05:07:15;3.42;;;1.70;;
52940;SDS011;62001;53.366;6.636;2023-07-31T05:09:42;4.70;;;1.80;;
52940;SDS011;62001;53.366;6.636;2023-07-31T05:12:08;3.03;;;2.10;;
52940;SDS011;62001;53.366;6.636;2023-07-31T05:14:34;2.25;;;2.00;;
52940;SDS011;62001;53.366;6.636;2023-07-31T05:16:59;3.00;;;1.90;;
52940;SDS011;62001;53.366;6.636;2023-07-31T05:19:25;9.85;;;1.85;;
52940;SDS011;62001;53.366;6.636;2023-07-31T05:21:51;1.98;;;1.60;;
52940;SDS011;62001;53.366;6.636;2023-07-31T05:24:17;3.42;;;1.63;;
52940;SDS011;62001;53.366;6.636;2023-07-31T05:26:43;3.10;;;1.60;;
52940;SDS011;62001;53.366;6.636;2023-07-31T05:29:09;1.83;;;1.60;;
52940;SDS011;62001;53.366;6.636;2023-07-31T05:31:34;2.03;;;1.85;;
52940;SDS011;62001;53.366;6.636;2023-07-31T05:34:00;3.83;;;1.60;;
52940;SDS011;62001;53.366;6.636;2023-07-31T05:36:26;4.38;;;2.10;;
52940;SDS011;62001;53.366;6.636;2023-07-31T05:38:52;3.25;;;2.30;;
52940;SDS011;62001;53.366;6.636;2023-07-31T05:41:18;2.33;;;2.00;;
52940;SDS011;62001;53.366;6.636;2023-07-31T05:43:44;3.60;;;1.98;;
52940;SDS011;62001;53.366;6.636;2023-07-31T05:46:09;2.53;;;1.60;;
52940;SDS011;62001;53.366;6.636;2023-07-31T05:48:37;3.30;;;1.70;;
52940;SDS011;62001;53.366;6.636;2023-07-31T05:51:03;3.47;;;1.70;;
52940;SDS011;62001;53.366;6.636;2023-07-31T05:53:28;1.55;;;1.30;;
52940;SDS011;62001;53.366;6.636;2023-07-31T05:55:54;2.55;;;1.40;;
52940;SDS011;62001;53.366;6.636;2023-07-31T05:58:20;1.30;;;1.17;;
52940;SDS011;62001;53.366;6.636;2023-07-31T06:00:46;1.73;;;1.23;;
52940;SDS011;62001;53.366;6.636;2023-07-31T06:03:12;2.10;;;1.20;;
52940;SDS011;62001;53.366;6.636;2023-07-31T06:05:38;3.17;;;1.25;;
52940;SDS011;62001;53.366;6.636;2023-07-31T06:08:04;1.23;;;1.10;;
52940;SDS011;62001;53.366;6.636;2023-07-31T06:10:29;2.47;;;1.23;;
52940;SDS011;62001;53.366;6.636;2023-07-31T06:12:55;1.63;;;1.00;;
52940;SDS011;62001;53.366;6.636;2023-07-31T06:15:22;2.00;;;1.20;;
52940;SDS011;62001;53.366;6.636;2023-07-31T06:17:48;6.95;;;3.05;;
52940;SDS011;62001;53.366;6.636;2023-07-31T06:20:14;5.38;;;1.40;;
52940;SDS011;62001;53.366;6.636;2023-07-31T06:22:40;1.38;;;1.10;;
52940;SDS011;62001;53.366;6.636;2023-07-31T06:25:05;1.40;;;1.30;;
52940;SDS011;62001;53.366;6.636;2023-07-31T06:27:31;1.45;;;1.35;;
52940;SDS011;62001;53.366;6.636;2023-07-31T06:29:57;1.95;;;1.40;;
52940;SDS011;62001;53.366;6.636;2023-07-31T06:32:23;1.48;;;1.38;;
52940;SDS011;62001;53.366;6.636;2023-07-31T06:34:49;5.65;;;2.65;;
52940;SDS011;62001;53.366;6.636;2023-07-31T06:37:15;5.55;;;2.65;;
52940;SDS011;62001;53.366;6.636;2023-07-31T06:39:41;3.28;;;1.77;;
52940;SDS011;62001;53.366;6.636;2023-07-31T06:42:07;5.05;;;3.30;;
52940;SDS011;62001;53.366;6.636;2023-07-31T06:44:33;3.40;;;2.08;;
52940;SDS011;62001;53.366;6.636;2023-07-31T06:46:59;2.67;;;1.98;;
52940;SDS011;62001;53.366;6.636;2023-07-31T06:49:25;3.50;;;1.95;;
52940;SDS011;62001;53.366;6.636;2023-07-31T06:51:50;3.08;;;2.10;;
52940;SDS011;62001;53.366;6.636;2023-07-31T06:54:16;3.35;;;2.10;;
52940;SDS011;62001;53.366;6.636;2023-07-31T06:56:42;4.43;;;2.10;;
52940;SDS011;62001;53.366;6.636;2023-07-31T06:59:08;5.07;;;2.08;;
52940;SDS011;62001;53.366;6.636;2023-07-31T07:01:34;2.35;;;1.73;;
52940;SDS011;62001;53.366;6.636;2023-07-31T07:04:00;4.50;;;1.88;;
52940;SDS011;62001;53.366;6.636;2023-07-31T07:06:26;3.05;;;1.65;;
52940;SDS011;62001;53.366;6.636;2023-07-31T07:08:52;2.85;;;1.67;;
52940;SDS011;62001;53.366;6.636;2023-07-31T07:11:18;3.25;;;2.17;;
52940;SDS011;62001;53.366;6.636;2023-07-31T07:13:43;5.75;;;2.60;;
52940;SDS011;62001;53.366;6.636;2023-07-31T07:16:09;8.15;;;2.50;;
52940;SDS011;62001;53.366;6.636;2023-07-31T07:18:35;3.67;;;2.30;;
52940;SDS011;62001;53.366;6.636;2023-07-31T07:21:01;4.90;;;2.70;;
52940;SDS011;62001;53.366;6.636;2023-07-31T07:23:30;7.95;;;3.13;;
52940;SDS011;62001;53.366;6.636;2023-07-31T07:25:56;8.50;;;3.53;;
52940;SDS011;62001;53.366;6.636;2023-07-31T07:28:22;10.65;;;4.32;;
52940;SDS011;62001;53.366;6.636;2023-07-31T07:30:54;12.68;;;4.78;;
52940;SDS011;62001;53.366;6.636;2023-07-31T07:33:20;12.90;;;5.18;;
52940;SDS011;62001;53.366;6.636;2023-07-31T07:35:45;13.20;;;4.53;;
52940;SDS011;62001;53.366;6.636;2023-07-31T07:38:13;13.38;;;5.20;;
52940;SDS011;62001;53.366;6.636;2023-07-31T07:40:40;15.40;;;6.00;;
52940;SDS011;62001;53.366;6.636;2023-07-31T07:43:06;16.95;;;7.50;;
52940;SDS011;62001;53.366;6.636;2023-07-31T07:45:32;16.27;;;5.85;;
52940;SDS011;62001;53.366;6.636;2023-07-31T07:47:58;14.73;;;5.93;;
52940;SDS011;62001;53.366;6.636;2023-07-31T07:50:24;19.85;;;5.95;;
52940;SDS011;62001;53.366;6.636;2023-07-31T07:52:50;19.23;;;6.75;;
52940;SDS011;62001;53.366;6.636;2023-07-31T07:55:16;16.33;;;6.43;;
52940;SDS011;62001;53.366;6.636;2023-07-31T07:57:42;15.20;;;5.45;;
52940;SDS011;62001;53.366;6.636;2023-07-31T08:00:10;12.38;;;5.07;;
52940;SDS011;62001;53.366;6.636;2023-07-31T08:02:37;17.63;;;6.18;;
52940;SDS011;62001;53.366;6.636;2023-07-31T08:05:03;11.25;;;4.75;;
52940;SDS011;62001;53.366;6.636;2023-07-31T08:07:30;10.98;;;4.78;;
52940;SDS011;62001;53.366;6.636;2023-07-31T08:09:55;12.70;;;4.80;;
52940;SDS011;62001;53.366;6.636;2023-07-31T08:12:21;14.35;;;5.05;;
52940;SDS011;62001;53.366;6.636;2023-07-31T08:14:50;15.75;;;5.30;;
52940;SDS011;62001;53.366;6.636;2023-07-31T08:17:17;11.32;;;4.85;;
52940;SDS011;62001;53.366;6.636;2023-07-31T08:19:43;10.65;;;4.72;;
52940;SDS011;62001;53.366;6.636;2023-07-31T08:22:09;9.77;;;4.15;;
52940;SDS011;62001;53.366;6.636;2023-07-31T08:24:36;8.85;;;4.20;;
52940;SDS011;62001;53.366;6.636;2023-07-31T08:27:01;6.53;;;3.85;;
52940;SDS011;62001;53.366;6.636;2023-07-31T08:29:27;11.95;;;4.40;;
52940;SDS011;62001;53.366;6.636;2023-07-31T08:31:53;11.43;;;4.20;;
52940;SDS011;62001;53.366;6.636;2023-07-31T08:34:19;7.13;;;3.38;;
52940;SDS011;62001;53.366;6.636;2023-07-31T08:36:45;5.00;;;2.55;;
52940;SDS011;62001;53.366;6.636;2023-07-31T08:39:11;3.10;;;1.75;;
52940;SDS011;62001;53.366;6.636;2023-07-31T08:41:37;1.50;;;1.10;;
52940;SDS011;62001;53.366;6.636;2023-07-31T08:44:04;2.28;;;0.93;;
52940;SDS011;62001;53.366;6.636;2023-07-31T08:46:31;2.60;;;1.00;;
52940;SDS011;62001;53.366;6.636;2023-07-31T08:48:58;1.15;;;0.88;;
52940;SDS011;62001;53.366;6.636;2023-07-31T08:51:25;1.65;;;0.80;;
52940;SDS011;62001;53.366;6.636;2023-07-31T08:53:52;1.30;;;0.80;;
52940;SDS011;62001;53.366;6.636;2023-07-31T08:56:18;1.90;;;0.90;;
52940;SDS011;62001;53.366;6.636;2023-07-31T08:58:45;2.17;;;0.82;;
52940;SDS011;62001;53.366;6.636;2023-07-31T09:01:12;2.05;;;0.90;;
52940;SDS011;62001;53.366;6.636;2023-07-31T09:03:40;1.30;;;0.90;;
52940;SDS011;62001;53.366;6.636;2023-07-31T09:06:07;0.90;;;0.90;;
52940;SDS011;62001;53.366;6.636;2023-07-31T09:08:33;1.75;;;0.98;;
52940;SDS011;62001;53.366;6.636;2023-07-31T09:11:00;2.45;;;1.10;;
52940;SDS011;62001;53.366;6.636;2023-07-31T09:13:30;1.25;;;0.98;;
52940;SDS011;62001;53.366;6.636;2023-07-31T09:15:57;2.55;;;0.90;;
52940;SDS011;62001;53.366;6.636;2023-07-31T09:18:22;1.88;;;0.90;;
52940;SDS011;62001;53.366;6.636;2023-07-31T09:21:04;2.63;;;0.98;;
52940;SDS011;62001;53.366;6.636;2023-07-31T09:23:42;0.82;;;0.77;;
52940;SDS011;62001;53.366;6.636;2023-07-31T09:26:09;1.63;;;0.95;;
52940;SDS011;62001;53.366;6.636;2023-07-31T09:28:36;1.35;;;0.70;;
52940;SDS011;62001;53.366;6.636;2023-07-31T09:31:02;0.70;;;0.70;;
52940;SDS011;62001;53.366;6.636;2023-07-31T09:33:28;1.67;;;0.80;;
52940;SDS011;62001;53.366;6.636;2023-07-31T09:35:53;0.60;;;0.60;;
52940;SDS011;62001;53.366;6.636;2023-07-31T09:38:19;0.73;;;0.57;;
52940;SDS011;62001;53.366;6.636;2023-07-31T09:40:47;2.90;;;0.57;;
52940;SDS011;62001;53.366;6.636;2023-07-31T09:43:17;1.45;;;0.57;;
52940;SDS011;62001;53.366;6.636;2023-07-31T09:45:45;2.72;;;0.60;;
52940;SDS011;62001;53.366;6.636;2023-07-31T09:48:12;0.50;;;0.50;;
52940;SDS011;62001;53.366;6.636;2023-07-31T09:50:46;0.80;;;0.50;;
52940;SDS011;62001;53.366;6.636;2023-07-31T09:53:13;1.38;;;0.60;;
52940;SDS011;62001;53.366;6.636;2023-07-31T09:55:40;1.10;;;0.60;;
52940;SDS011;62001;53.366;6.636;2023-07-31T09:58:07;0.50;;;0.50;;
52940;SDS011;62001;53.366;6.636;2023-07-31T10:00:35;0.77;;;0.50;;
52940;SDS011;62001;53.366;6.636;2023-07-31T10:03:02;1.48;;;0.60;;
52940;SDS011;62001;53.366;6.636;2023-07-31T10:08:09;2.05;;;0.70;;
52940;SDS011;62001;53.366;6.636;2023-07-31T10:10:36;2.65;;;0.50;;
52940;SDS011;62001;53.366;6.636;2023-07-31T10:13:06;0.50;;;0.50;;
52940;SDS011;62001;53.366;6.636;2023-07-31T10:15:32;1.35;;;0.90;;
52940;SDS011;62001;53.366;6.636;2023-07-31T10:17:59;1.80;;;0.90;;
52940;SDS011;62001;53.366;6.636;2023-07-31T10:20:26;0.95;;;0.68;;
52940;SDS011;62001;53.366;6.636;2023-07-31T10:22:54;2.60;;;0.60;;
52940;SDS011;62001;53.366;6.636;2023-07-31T10:25:21;1.35;;;0.47;;
52940;SDS011;62001;53.366;6.636;2023-07-31T10:27:47;0.68;;;0.57;;
52940;SDS011;62001;53.366;6.636;2023-07-31T10:30:17;1.23;;;0.90;;
52940;SDS011;62001;53.366;6.636;2023-07-31T10:32:47;3.88;;;1.30;;
52940;SDS011;62001;53.366;6.636;2023-07-31T10:35:15;1.90;;;1.17;;
52940;SDS011;62001;53.366;6.636;2023-07-31T10:37:42;5.00;;;1.55;;
52940;SDS011;62001;53.366;6.636;2023-07-31T10:40:13;3.85;;;1.33;;
52940;SDS011;62001;53.366;6.636;2023-07-31T10:45:23;5.68;;;2.10;;
52940;SDS011;62001;53.366;6.636;2023-07-31T10:48:02;3.38;;;1.63;;
52940;SDS011;62001;53.366;6.636;2023-07-31T10:50:30;3.70;;;1.50;;
52940;SDS011;62001;53.366;6.636;2023-07-31T10:53:03;3.50;;;1.50;;
52940;SDS011;62001;53.366;6.636;2023-07-31T10:55:33;5.55;;;1.73;;
52940;SDS011;62001;53.366;6.636;2023-07-31T10:58:07;8.10;;;1.90;;
52940;SDS011;62001;53.366;6.636;2023-07-31T11:00:36;4.13;;;1.85;;
52940;SDS011;62001;53.366;6.636;2023-07-31T11:03:08;3.72;;;1.95;;
52940;SDS011;62001;53.366;6.636;2023-07-31T11:10:40;5.03;;;1.45;;
52940;SDS011;62001;53.366;6.636;2023-07-31T11:13:07;3.47;;;1.45;;
52940;SDS011;62001;53.366;6.636;2023-07-31T11:15:33;3.45;;;1.83;;
52940;SDS011;62001;53.366;6.636;2023-07-31T11:18:01;3.15;;;1.40;;
52940;SDS011;62001;53.366;6.636;2023-07-31T11:20:33;2.33;;;1.55;;
52940;SDS011;62001;53.366;6.636;2023-07-31T11:23:01;4.90;;;1.55;;
52940;SDS011;62001;53.366;6.636;2023-07-31T11:25:30;4.15;;;1.60;;
52940;SDS011;62001;53.366;6.636;2023-07-31T11:27:57;3.55;;;1.63;;
52940;SDS011;62001;53.366;6.636;2023-07-31T11:30:29;2.58;;;1.42;;
52940;SDS011;62001;53.366;6.636;2023-07-31T11:32:55;3.42;;;1.50;;
52940;SDS011;62001;53.366;6.636;2023-07-31T11:35:21;5.03;;;1.60;;
52940;SDS011;62001;53.366;6.636;2023-07-31T11:37:47;2.05;;;1.48;;
52940;SDS011;62001;53.366;6.636;2023-07-31T11:40:14;2.35;;;1.17;;
52940;SDS011;62001;53.366;6.636;2023-07-31T11:42:40;2.17;;;1.10;;
52940;SDS011;62001;53.366;6.636;2023-07-31T11:45:09;2.42;;;1.33;;
52940;SDS011;62001;53.366;6.636;2023-07-31T11:47:36;2.58;;;1.15;;
52940;SDS011;62001;53.366;6.636;2023-07-31T11:50:06;1.42;;;1.17;;
52940;SDS011;62001;53.366;6.636;2023-07-31T11:52:40;1.25;;;1.00;;
52940;SDS011;62001;53.366;6.636;2023-07-31T11:55:08;1.83;;;1.00;;
52940;SDS011;62001;53.366;6.636;2023-07-31T11:57:35;1.98;;;1.10;;
52940;SDS011;62001;53.366;6.636;2023-07-31T12:00:05;4.60;;;0.88;;
52940;SDS011;62001;53.366;6.636;2023-07-31T12:02:34;2.67;;;0.95;;
52940;SDS011;62001;53.366;6.636;2023-07-31T12:05:01;1.80;;;0.80;;
52940;SDS011;62001;53.366;6.636;2023-07-31T12:07:27;2.50;;;1.00;;
52940;SDS011;62001;53.366;6.636;2023-07-31T12:09:53;2.20;;;0.85;;
52940;SDS011;62001;53.366;6.636;2023-07-31T12:12:20;1.92;;;0.98;;
52940;SDS011;62001;53.366;6.636;2023-07-31T12:14:47;1.63;;;0.98;;
52940;SDS011;62001;53.366;6.636;2023-07-31T12:17:14;2.63;;;0.90;;
52940;SDS011;62001;53.366;6.636;2023-07-31T12:19:40;5.28;;;1.40;;
52940;SDS011;62001;53.366;6.636;2023-07-31T12:22:13;2.30;;;1.05;;
52940;SDS011;62001;53.366;6.636;2023-07-31T12:24:42;2.03;;;0.90;;
52940;SDS011;62001;53.366;6.636;2023-07-31T12:27:12;3.42;;;1.42;;
52940;SDS011;62001;53.366;6.636;2023-07-31T12:29:40;3.25;;;1.20;;
52940;SDS011;62001;53.366;6.636;2023-07-31T12:32:20;3.45;;;1.10;;
52940;SDS011;62001;53.366;6.636;2023-07-31T12:34:50;2.92;;;1.50;;
52940;SDS011;62001;53.366;6.636;2023-07-31T12:37:16;3.60;;;1.30;;
52940;SDS011;62001;53.366;6.636;2023-07-31T12:39:42;2.60;;;1.20;;
52940;SDS011;62001;53.366;6.636;2023-07-31T12:42:08;1.75;;;1.10;;
52940;SDS011;62001;53.366;6.636;2023-07-31T12:44:34;3.60;;;1.52;;
52940;SDS011;62001;53.366;6.636;2023-07-31T12:47:00;3.05;;;1.40;;
52940;SDS011;62001;53.366;6.636;2023-07-31T12:49:26;3.95;;;1.63;;
52940;SDS011;62001;53.366;6.636;2023-07-31T12:51:52;4.75;;;1.38;;
52940;SDS011;62001;53.366;6.636;2023-07-31T12:54:19;3.22;;;1.42;;
52940;SDS011;62001;53.366;6.636;2023-07-31T12:56:45;3.33;;;1.60;;
52940;SDS011;62001;53.366;6.636;2023-07-31T12:59:11;2.33;;;1.15;;
52940;SDS011;62001;53.366;6.636;2023-07-31T13:01:36;4.45;;;1.38;;
52940;SDS011;62001;53.366;6.636;2023-07-31T13:04:02;1.95;;;1.00;;
52940;SDS011;62001;53.366;6.636;2023-07-31T13:06:28;1.85;;;0.80;;
52940;SDS011;62001;53.366;6.636;2023-07-31T13:08:54;1.58;;;0.70;;
52940;SDS011;62001;53.366;6.636;2023-07-31T13:11:21;2.45;;;0.70;;
52940;SDS011;62001;53.366;6.636;2023-07-31T13:13:46;1.65;;;1.00;;
52940;SDS011;62001;53.366;6.636;2023-07-31T13:16:12;2.95;;;1.00;;
52940;SDS011;62001;53.366;6.636;2023-07-31T13:18:38;2.70;;;1.13;;
52940;SDS011;62001;53.366;6.636;2023-07-31T13:21:04;1.42;;;1.05;;
52940;SDS011;62001;53.366;6.636;2023-07-31T13:23:30;2.17;;;1.00;;
52940;SDS011;62001;53.366;6.636;2023-07-31T13:25:55;4.20;;;1.40;;
52940;SDS011;62001;53.366;6.636;2023-07-31T13:28:21;2.50;;;1.20;;
52940;SDS011;62001;53.366;6.636;2023-07-31T13:30:47;3.70;;;1.20;;
52940;SDS011;62001;53.366;6.636;2023-07-31T13:33:13;3.03;;;1.30;;
52940;SDS011;62001;53.366;6.636;2023-07-31T13:35:39;2.75;;;1.20;;
52940;SDS011;62001;53.366;6.636;2023-07-31T13:38:05;4.07;;;1.40;;
52940;SDS011;62001;53.366;6.636;2023-07-31T13:40:32;2.85;;;1.50;;
52940;SDS011;62001;53.366;6.636;2023-07-31T13:42:58;6.95;;;1.60;;
52940;SDS011;62001;53.366;6.636;2023-07-31T13:45:23;3.17;;;1.45;;
52940;SDS011;62001;53.366;6.636;2023-07-31T13:47:50;5.10;;;1.77;;
52940;SDS011;62001;53.366;6.636;2023-07-31T13:50:16;4.95;;;1.65;;
52940;SDS011;62001;53.366;6.636;2023-07-31T13:52:44;4.07;;;1.48;;
52940;SDS011;62001;53.366;6.636;2023-07-31T13:55:10;8.77;;;2.20;;
52940;SDS011;62001;53.366;6.636;2023-07-31T13:57:36;4.85;;;1.65;;
52940;SDS011;62001;53.366;6.636;2023-07-31T14:00:02;6.22;;;2.00;;
52940;SDS011;62001;53.366;6.636;2023-07-31T14:02:32;7.50;;;2.35;;
52940;SDS011;62001;53.366;6.636;2023-07-31T14:04:58;7.78;;;2.35;;
52940;SDS011;62001;53.366;6.636;2023-07-31T14:07:23;7.75;;;2.38;;
52940;SDS011;62001;53.366;6.636;2023-07-31T14:09:49;9.40;;;2.47;;
52940;SDS011;62001;53.366;6.636;2023-07-31T14:12:15;6.65;;;2.30;;
52940;SDS011;62001;53.366;6.636;2023-07-31T14:14:41;7.15;;;2.80;;
52940;SDS011;62001;53.366;6.636;2023-07-31T14:17:07;7.43;;;2.30;;
52940;SDS011;62001;53.366;6.636;2023-07-31T14:19:33;6.68;;;2.47;;
52940;SDS011;62001;53.366;6.636;2023-07-31T14:21:59;8.50;;;2.95;;
52940;SDS011;62001;53.366;6.636;2023-07-31T14:24:25;8.30;;;2.33;;
52940;SDS011;62001;53.366;6.636;2023-07-31T14:26:50;6.53;;;2.60;;
52940;SDS011;62001;53.366;6.636;2023-07-31T14:29:16;8.27;;;2.65;;
52940;SDS011;62001;53.366;6.636;2023-07-31T14:31:42;7.38;;;2.97;;
52940;SDS011;62001;53.366;6.636;2023-07-31T14:34:08;9.75;;;2.58;;
52940;SDS011;62001;53.366;6.636;2023-07-31T14:36:34;6.05;;;2.63;;
52940;SDS011;62001;53.366;6.636;2023-07-31T14:39:00;7.43;;;2.95;;
52940;SDS011;62001;53.366;6.636;2023-07-31T14:41:26;6.38;;;2.67;;
52940;SDS011;62001;53.366;6.636;2023-07-31T14:43:51;7.07;;;2.78;;
52940;SDS011;62001;53.366;6.636;2023-07-31T14:46:17;8.30;;;2.92;;
52940;SDS011;62001;53.366;6.636;2023-07-31T14:48:43;6.60;;;2.85;;
52940;SDS011;62001;53.366;6.636;2023-07-31T14:51:09;7.28;;;3.10;;
52940;SDS011;62001;53.366;6.636;2023-07-31T14:53:35;7.13;;;2.88;;
52940;SDS011;62001;53.366;6.636;2023-07-31T14:56:01;9.15;;;3.20;;
52940;SDS011;62001;53.366;6.636;2023-07-31T14:58:27;7.57;;;3.17;;
52940;SDS011;62001;53.366;6.636;2023-07-31T15:00:53;6.32;;;3.10;;